createdAt,value
2024-01-24T00:02:14.301Z,100.00
2024-01-24T00:04:37.804Z,100.00
2024-01-24T00:07:01.318Z,100.00
2024-01-24T00:09:24.998Z,100.00
2024-01-24T00:11:48.631Z,100.00
2024-01-24T00:14:12.391Z,100.00
2024-01-24T00:16:35.903Z,100.00
2024-01-24T00:19:01.099Z,100.00
2024-01-24T00:21:24.675Z,100.00
2024-01-24T00:23:48.242Z,100.00
2024-01-24T00:26:11.655Z,100.00
2024-01-24T00:28:35.165Z,100.00
2024-01-24T00:30:58.592Z,100.00
2024-01-24T00:33:22.760Z,100.00
2024-01-24T00:35:47.544Z,100.00
2024-01-24T00:38:10.971Z,100.00
2024-01-24T00:40:34.674Z,100.00
2024-01-24T00:42:58.134Z,100.00
2024-01-24T00:45:22.750Z,100.00
2024-01-24T00:47:46.543Z,100.00
2024-01-24T00:50:11.298Z,100.00
2024-01-24T00:52:36.211Z,100.00
2024-01-24T00:54:59.714Z,100.00
2024-01-24T00:57:26.727Z,100.00
2024-01-24T00:59:50.193Z,100.00
2024-01-24T01:02:14.052Z,100.00
2024-01-24T01:04:37.619Z,100.00
2024-01-24T01:07:01.025Z,100.00
2024-01-24T01:09:25.887Z,100.00
2024-01-24T01:11:49.246Z,100.00
2024-01-24T01:14:12.934Z,100.00
2024-01-24T01:16:36.815Z,100.00
2024-01-24T01:19:00.426Z,100.00
2024-01-24T01:21:23.907Z,100.00
2024-01-24T01:23:47.682Z,100.00
2024-01-24T01:26:12.521Z,100.00
2024-01-24T01:28:36.824Z,100.00
2024-01-24T01:31:00.378Z,100.00
2024-01-24T01:33:23.964Z,100.00
2024-01-24T01:35:47.466Z,100.00
2024-01-24T01:38:11.057Z,100.00
2024-01-24T01:40:34.527Z,100.00
2024-01-24T01:42:59.418Z,100.00
2024-01-24T01:45:24.416Z,100.00
2024-01-24T01:47:52.845Z,100.00
2024-01-24T01:50:16.795Z,100.00
2024-01-24T01:52:42.408Z,100.00
2024-01-24T01:55:07.387Z,100.00
2024-01-24T01:57:31.073Z,100.00
2024-01-24T01:59:55.901Z,100.00
2024-01-24T02:02:19.348Z,100.00
2024-01-24T02:04:43.128Z,100.00
2024-01-24T02:07:06.853Z,100.00
2024-01-24T02:09:30.768Z,100.00
2024-01-24T02:11:54.298Z,100.00
2024-01-24T02:14:18.128Z,100.00
2024-01-24T02:16:43.644Z,100.00
2024-01-24T02:19:07.657Z,100.00
2024-01-24T02:21:32.425Z,100.00
2024-01-24T02:23:58.061Z,100.00
2024-01-24T02:26:22.881Z,100.00
2024-01-24T02:28:46.423Z,100.00
2024-01-24T02:31:10.104Z,100.00
2024-01-24T02:33:34.150Z,100.00
2024-01-24T02:35:57.648Z,100.00
2024-01-24T02:38:21.524Z,100.00
2024-01-24T02:40:45.043Z,100.00
2024-01-24T02:43:09.852Z,100.00
2024-01-24T02:45:33.389Z,100.00
2024-01-24T02:47:57.022Z,100.00
2024-01-24T02:50:20.475Z,100.00
2024-01-24T02:52:44.048Z,100.00
2024-01-24T02:55:09.457Z,100.00
2024-01-24T02:57:32.898Z,100.00
2024-01-24T02:59:57.738Z,100.00
2024-01-24T03:02:21.200Z,100.00
2024-01-24T03:04:44.800Z,100.00
2024-01-24T03:07:08.377Z,100.00
2024-01-24T03:09:32.345Z,100.00
2024-01-24T03:11:55.939Z,100.00
2024-01-24T03:14:19.290Z,100.00
2024-01-24T03:16:44.136Z,100.00
2024-01-24T03:19:08.582Z,100.00
2024-01-24T03:21:32.141Z,100.00
2024-01-24T03:23:55.551Z,100.00
2024-01-24T03:26:18.986Z,100.00
2024-01-24T03:28:42.659Z,100.00
2024-01-24T03:31:06.265Z,100.00
2024-01-24T03:33:31.583Z,100.00
2024-01-24T03:35:54.996Z,100.00
2024-01-24T03:38:18.548Z,100.00
2024-01-24T03:40:42.188Z,100.00
2024-01-24T03:43:07.758Z,100.00
2024-01-24T03:45:31.206Z,100.00
2024-01-24T03:47:54.718Z,100.00
2024-01-24T03:50:19.665Z,100.00
2024-01-24T03:52:43.583Z,100.00
2024-01-24T03:55:07.850Z,100.00
2024-01-24T03:57:31.359Z,100.00
2024-01-24T03:59:55.036Z,100.00
2024-01-24T04:02:18.466Z,100.00
2024-01-24T04:04:42.031Z,100.00
2024-01-24T04:07:06.934Z,100.00
2024-01-24T04:09:30.484Z,100.00
2024-01-24T04:11:53.910Z,100.00
2024-01-24T04:14:17.282Z,100.00
2024-01-24T04:16:41.519Z,100.00
2024-01-24T04:19:05.183Z,100.00
2024-01-24T04:21:29.233Z,100.00
2024-01-24T04:23:54.295Z,100.00
2024-01-24T04:26:21.964Z,100.00
2024-01-24T04:28:45.648Z,100.00
2024-01-24T04:31:09.448Z,100.00
2024-01-24T04:33:33.996Z,100.00
2024-01-24T04:35:57.595Z,100.00
2024-01-24T04:38:20.998Z,100.00
2024-01-24T04:40:46.286Z,100.00
2024-01-24T04:43:10.043Z,100.00
2024-01-24T04:45:33.613Z,100.00
2024-01-24T04:47:57.157Z,100.00
2024-01-24T04:50:20.749Z,100.00
2024-01-24T04:52:44.447Z,100.00
2024-01-24T04:55:12.475Z,100.00
2024-01-24T04:57:37.790Z,100.00
2024-01-24T05:00:02.975Z,100.00
2024-01-24T05:02:26.767Z,100.00
2024-01-24T05:04:50.518Z,100.00
2024-01-24T05:07:14.232Z,100.00
2024-01-24T05:09:37.933Z,100.00
2024-01-24T05:12:01.491Z,100.00
2024-01-24T05:14:26.296Z,100.00
2024-01-24T05:16:50.494Z,100.00
2024-01-24T05:19:14.172Z,100.00
2024-01-24T05:21:43.216Z,100.00
2024-01-24T05:24:07.261Z,100.00
2024-01-24T05:30:35.942Z,97.92
2024-01-24T05:33:01.741Z,98.20
2024-01-24T05:35:25.192Z,98.12
2024-01-24T05:37:48.900Z,98.52
2024-01-24T05:40:14.335Z,98.33
2024-01-24T05:42:39.092Z,98.39
2024-01-24T05:45:03.658Z,98.60
2024-01-24T05:47:28.486Z,98.70
2024-01-24T05:49:52.229Z,98.60
2024-01-24T05:52:15.646Z,95.17
2024-01-24T05:54:39.068Z,96.18
2024-01-24T05:57:02.597Z,97.15
2024-01-24T05:59:26.581Z,96.78
2024-01-24T06:01:50.807Z,96.16
2024-01-24T06:04:15.941Z,93.59
2024-01-24T06:06:39.764Z,93.67
2024-01-24T06:09:03.480Z,92.19
2024-01-24T06:11:27.066Z,91.99
2024-01-24T06:13:50.604Z,90.63
2024-01-24T06:16:14.142Z,89.88
2024-01-24T06:18:37.658Z,86.29
2024-01-24T06:21:03.099Z,82.00
2024-01-24T06:23:26.677Z,82.17
2024-01-24T06:25:50.401Z,82.40
2024-01-24T06:28:14.480Z,81.98
2024-01-24T06:30:38.166Z,83.71
2024-01-24T06:33:04.625Z,88.40
2024-01-24T06:35:28.461Z,94.75
2024-01-24T06:37:53.697Z,100.00
2024-01-24T06:40:19.267Z,100.00
2024-01-24T06:42:42.650Z,100.00
2024-01-24T06:45:08.265Z,97.98
2024-01-24T06:47:31.628Z,90.63
2024-01-24T06:49:55.052Z,88.07
2024-01-24T06:52:18.741Z,85.92
2024-01-24T06:54:43.680Z,85.60
2024-01-24T06:57:07.209Z,86.76
2024-01-24T06:59:30.603Z,86.64
2024-01-24T07:01:54.872Z,87.27
2024-01-24T07:04:18.550Z,87.58
2024-01-24T07:06:42.169Z,86.26
2024-01-24T07:09:06.557Z,87.08
2024-01-24T07:11:31.379Z,87.42
2024-01-24T07:13:55.160Z,86.67
2024-01-24T07:16:18.555Z,85.69
2024-01-24T07:18:42.162Z,85.67
2024-01-24T07:21:07.795Z,86.95
2024-01-24T07:23:31.368Z,86.27
2024-01-24T07:25:55.212Z,86.20
2024-01-24T07:28:38.103Z,86.37
2024-01-24T07:31:02.054Z,86.67
2024-01-24T07:33:27.523Z,84.84
2024-01-24T07:35:51.121Z,84.13
2024-01-24T07:38:14.707Z,84.19
2024-01-24T07:40:38.260Z,83.58
2024-01-24T07:43:02.054Z,79.22
2024-01-24T07:45:27.352Z,78.00
2024-01-24T07:47:51.234Z,76.84
2024-01-24T07:50:15.431Z,76.22
2024-01-24T07:52:42.152Z,75.08
2024-01-24T07:55:06.993Z,75.77
2024-01-24T07:57:30.555Z,76.00
2024-01-24T07:59:54.187Z,76.02
2024-01-24T08:02:19.176Z,75.54
2024-01-24T08:04:42.702Z,75.23
2024-01-24T08:07:06.580Z,73.83
2024-01-24T08:09:30.282Z,73.67
2024-01-24T08:11:54.693Z,74.44
2024-01-24T08:14:19.927Z,74.39
2024-01-24T08:17:01.980Z,73.37
2024-01-24T08:19:27.142Z,73.21
2024-01-24T08:21:50.901Z,73.42
2024-01-24T08:24:14.992Z,73.67
2024-01-24T08:26:38.462Z,74.04
2024-01-24T08:29:02.929Z,73.62
2024-01-24T08:31:26.698Z,73.87
2024-01-24T08:33:52.373Z,73.81
2024-01-24T08:36:17.598Z,73.78
2024-01-24T08:38:41.104Z,74.13
2024-01-24T08:41:05.302Z,74.12
2024-01-24T08:43:28.866Z,73.53
2024-01-24T08:45:53.004Z,73.68
2024-01-24T08:48:16.783Z,74.07
2024-01-24T08:50:41.223Z,73.93
2024-01-24T08:53:13.654Z,73.98
2024-01-24T08:55:37.367Z,73.61
2024-01-24T08:58:01.028Z,73.99
2024-01-24T09:00:25.154Z,73.24
2024-01-24T09:02:49.910Z,72.70
2024-01-24T09:05:14.111Z,73.50
2024-01-24T09:07:37.768Z,73.23
2024-01-24T09:10:04.362Z,72.98
2024-01-24T09:12:28.003Z,72.38
2024-01-24T09:14:51.979Z,71.75
2024-01-24T09:17:16.317Z,70.42
2024-01-24T09:19:43.121Z,69.63
2024-01-24T09:22:10.549Z,69.28
2024-01-24T09:24:42.994Z,69.05
2024-01-24T09:27:08.489Z,68.00
2024-01-24T09:29:32.006Z,67.55
2024-01-24T09:31:55.479Z,67.85
2024-01-24T09:34:19.167Z,68.20
2024-01-24T09:36:43.263Z,68.04
2024-01-24T09:39:10.277Z,67.94
2024-01-24T09:41:42.352Z,67.38
2024-01-24T09:44:09.405Z,67.70
2024-01-24T09:46:37.023Z,67.09
2024-01-24T09:49:02.818Z,65.44
2024-01-24T09:51:27.066Z,66.80
2024-01-24T09:53:52.169Z,66.87
2024-01-24T09:56:28.147Z,67.68
2024-01-24T09:59:03.161Z,68.84
2024-01-24T10:01:39.909Z,69.40
2024-01-24T10:04:04.598Z,70.00
2024-01-24T10:06:28.985Z,71.00
2024-01-24T10:08:53.484Z,71.33
2024-01-24T10:11:17.200Z,71.11
2024-01-24T10:13:40.625Z,71.19
2024-01-24T10:16:09.720Z,70.87
2024-01-24T10:18:35.671Z,70.21
2024-01-24T10:21:02.633Z,69.93
2024-01-24T10:23:26.627Z,69.66
2024-01-24T10:25:51.048Z,70.23
2024-01-24T10:28:18.003Z,70.74
2024-01-24T10:30:43.283Z,70.63
2024-01-24T10:33:07.276Z,70.19
2024-01-24T10:35:32.855Z,70.61
2024-01-24T10:37:57.798Z,69.83
2024-01-24T10:40:22.735Z,69.27
2024-01-24T10:42:46.989Z,68.93
2024-01-24T10:45:11.725Z,69.47
2024-01-24T10:47:35.910Z,69.24
2024-01-24T10:50:04.969Z,68.70
2024-01-24T10:52:30.468Z,68.58
2024-01-24T10:54:55.430Z,68.36
2024-01-24T10:57:21.133Z,68.76
2024-01-24T10:59:46.127Z,68.56
2024-01-24T11:02:11.395Z,67.29
2024-01-24T11:04:35.576Z,67.17
2024-01-24T11:07:05.927Z,67.44
2024-01-24T11:09:39.319Z,66.91
2024-01-24T11:12:03.930Z,66.80
2024-01-24T11:14:31.678Z,65.35
2024-01-24T11:16:55.497Z,64.71
2024-01-24T11:19:24.201Z,64.67
2024-01-24T11:21:48.476Z,65.35
2024-01-24T11:24:12.025Z,65.68
2024-01-24T11:26:50.154Z,67.92
2024-01-24T11:29:15.647Z,67.95
2024-01-24T11:31:39.933Z,67.84
2024-01-24T11:34:08.606Z,67.70
2024-01-24T11:36:32.399Z,66.90
2024-01-24T11:38:57.396Z,66.86
2024-01-24T11:41:25.185Z,66.47
2024-01-24T11:43:50.175Z,66.13
2024-01-24T11:46:14.128Z,66.15
2024-01-24T11:48:39.737Z,66.45
2024-01-24T11:51:06.370Z,67.04
2024-01-24T11:53:30.544Z,66.99
2024-01-24T11:55:56.633Z,67.34
2024-01-24T11:59:15.585Z,67.54
2024-01-24T12:01:40.751Z,67.21
2024-01-24T12:04:05.328Z,66.55
2024-01-24T12:06:32.723Z,66.68
2024-01-24T12:08:58.309Z,66.69
2024-01-24T12:11:22.573Z,66.44
2024-01-24T12:13:47.330Z,67.12
2024-01-24T12:16:11.314Z,67.63
2024-01-24T12:18:37.313Z,67.43
2024-01-24T12:21:03.081Z,67.57
2024-01-24T12:23:27.050Z,67.24
2024-01-24T12:25:51.092Z,65.89
2024-01-24T12:28:16.204Z,65.29
2024-01-24T12:30:46.618Z,65.20
2024-01-24T12:33:10.458Z,65.34
2024-01-24T12:35:35.459Z,65.12
2024-01-24T12:38:00.820Z,65.81
2024-01-24T12:40:24.771Z,66.41
2024-01-24T12:42:48.447Z,66.42
2024-01-24T12:45:13.573Z,65.56
2024-01-24T12:47:38.297Z,66.59
2024-01-24T12:50:03.189Z,67.14
2024-01-24T12:52:31.649Z,67.30
2024-01-24T12:54:55.278Z,67.77
2024-01-24T12:57:19.830Z,67.25
2024-01-24T12:59:43.421Z,67.81
2024-01-24T13:02:10.181Z,67.85
2024-01-24T13:04:34.554Z,67.82
2024-01-24T13:06:58.352Z,67.35
2024-01-24T13:09:23.305Z,67.61
2024-01-24T13:11:47.125Z,67.48
2024-01-24T13:14:10.739Z,67.71
2024-01-24T13:16:34.467Z,67.82
2024-01-24T13:18:58.148Z,67.77
2024-01-24T13:21:21.946Z,67.49
2024-01-24T13:23:45.656Z,67.49
2024-01-24T13:26:10.817Z,68.22
2024-01-24T13:28:34.467Z,68.08
2024-01-24T13:30:58.019Z,68.19
2024-01-24T13:33:22.087Z,68.08
2024-01-24T13:35:46.408Z,67.86
2024-01-24T13:38:10.039Z,67.85
2024-01-24T13:40:33.671Z,67.70
2024-01-24T13:42:58.753Z,66.97
2024-01-24T13:45:23.270Z,67.73
2024-01-24T13:47:48.186Z,67.27
2024-01-24T13:50:12.948Z,67.47
2024-01-24T13:52:36.605Z,67.28
2024-01-24T13:55:00.301Z,67.27
2024-01-24T13:57:24.110Z,67.61
2024-01-24T13:59:49.699Z,67.96
2024-01-24T14:02:16.311Z,67.83
2024-01-24T14:04:40.537Z,68.15
2024-01-24T14:07:04.507Z,68.91
2024-01-24T14:09:29.674Z,68.62
2024-01-24T14:11:55.828Z,69.27
2024-01-24T14:14:19.602Z,69.60
2024-01-24T14:16:44.463Z,69.74
2024-01-24T14:19:08.023Z,70.18
2024-01-24T14:21:33.054Z,70.12
2024-01-24T14:23:58.241Z,69.90
2024-01-24T14:26:23.059Z,69.84
2024-01-24T14:28:46.618Z,70.24
2024-01-24T14:31:10.142Z,69.98
2024-01-24T14:33:35.632Z,69.87
2024-01-24T14:35:59.613Z,69.65
2024-01-24T14:38:23.346Z,70.13
2024-01-24T14:40:46.942Z,70.51
2024-01-24T14:43:10.751Z,70.25
2024-01-24T14:45:34.604Z,70.43
2024-01-24T14:48:00.742Z,70.22
2024-01-24T14:50:26.457Z,70.56
2024-01-24T14:52:50.006Z,70.89
2024-01-24T14:55:13.645Z,71.15
2024-01-24T14:57:37.732Z,71.42
2024-01-24T15:00:01.836Z,71.50
2024-01-24T15:02:25.506Z,71.58
2024-01-24T15:04:51.688Z,71.50
2024-01-24T15:07:16.838Z,71.28
2024-01-24T15:09:41.101Z,71.35
2024-01-24T15:12:05.615Z,71.37
2024-01-24T15:14:33.175Z,71.32
2024-01-24T15:17:04.478Z,71.43
2024-01-24T15:19:30.120Z,71.28
2024-01-24T15:21:54.132Z,71.51
2024-01-24T15:24:19.662Z,71.48
2024-01-24T15:26:43.109Z,71.51
2024-01-24T15:29:07.152Z,71.42
2024-01-24T15:31:30.705Z,71.84
2024-01-24T15:33:54.086Z,72.01
2024-01-24T15:36:17.591Z,71.87
2024-01-24T15:38:41.113Z,72.40
2024-01-24T15:41:06.478Z,72.63
2024-01-24T15:43:30.306Z,72.99
2024-01-24T15:45:54.195Z,73.30
2024-01-24T15:48:17.947Z,73.31
2024-01-24T15:50:41.707Z,73.28
2024-01-24T15:53:05.994Z,73.49
2024-01-24T15:55:29.519Z,73.78
2024-01-24T15:57:54.442Z,73.90
2024-01-24T16:00:20.901Z,74.14
2024-01-24T16:02:44.670Z,73.87
2024-01-24T16:05:18.873Z,74.52
2024-01-24T16:07:42.530Z,74.67
2024-01-24T16:10:07.355Z,74.36
2024-01-24T16:12:31.074Z,74.72
2024-01-24T16:14:56.085Z,74.89
2024-01-24T16:17:20.827Z,75.56
2024-01-24T16:19:45.412Z,75.55
2024-01-24T16:22:10.315Z,75.94
2024-01-24T16:24:34.145Z,76.00
2024-01-24T16:26:57.975Z,76.29
2024-01-24T16:29:21.429Z,76.61
2024-01-24T16:31:46.858Z,76.40
2024-01-24T16:34:10.580Z,76.63
2024-01-24T16:36:34.417Z,77.00
2024-01-24T16:38:58.584Z,76.83
2024-01-24T16:41:22.273Z,77.13
2024-01-24T16:43:47.676Z,77.26
2024-01-24T16:46:11.265Z,77.21
2024-01-24T16:48:36.258Z,77.31
2024-01-24T16:51:00.282Z,77.48
2024-01-24T16:53:24.030Z,77.60
2024-01-24T16:55:47.568Z,77.74
2024-01-24T16:58:11.563Z,77.56
2024-01-24T17:00:35.464Z,77.98
2024-01-24T17:02:59.204Z,78.05
2024-01-24T17:05:24.123Z,78.14
2024-01-24T17:07:47.618Z,78.38
2024-01-24T17:10:12.306Z,78.57
2024-01-24T17:12:36.068Z,78.59
2024-01-24T17:15:00.313Z,78.54
2024-01-24T17:17:23.798Z,78.76
2024-01-24T17:19:47.463Z,78.79
2024-01-24T17:22:12.360Z,78.94
2024-01-24T17:24:36.561Z,79.13
2024-01-24T17:27:00.345Z,79.14
2024-01-24T17:29:24.012Z,78.44
2024-01-24T17:31:49.258Z,78.67
2024-01-24T17:34:14.695Z,78.61
2024-01-24T17:36:38.522Z,79.03
2024-01-24T17:39:05.456Z,79.20
2024-01-24T17:41:30.580Z,78.88
2024-01-24T17:43:54.366Z,79.07
2024-01-24T17:46:17.967Z,79.22
2024-01-24T17:48:41.866Z,79.56
2024-01-24T17:51:06.436Z,79.74
2024-01-24T17:53:30.919Z,79.75
2024-01-24T17:55:55.663Z,79.75
2024-01-24T17:58:19.083Z,80.28
2024-01-24T18:00:42.728Z,79.57
2024-01-24T18:03:06.702Z,80.12
2024-01-24T18:05:30.293Z,80.01
2024-01-24T18:07:55.714Z,80.10
2024-01-24T18:10:19.855Z,80.58
2024-01-24T18:12:44.820Z,80.77
2024-01-24T18:15:09.234Z,80.42
2024-01-24T18:17:32.682Z,80.59
2024-01-24T18:19:56.329Z,80.55
2024-01-24T18:22:19.920Z,80.76
2024-01-24T18:24:43.604Z,80.59
2024-01-24T18:27:07.395Z,80.54
2024-01-24T18:29:32.181Z,81.15
2024-01-24T18:31:55.671Z,80.72
2024-01-24T18:34:38.112Z,80.58
2024-01-24T18:37:02.066Z,80.34
2024-01-24T18:39:25.717Z,81.03
2024-01-24T18:41:49.605Z,80.66
2024-01-24T18:44:14.452Z,80.83
2024-01-24T18:46:39.579Z,81.35
2024-01-24T18:49:04.849Z,81.91
2024-01-24T18:51:29.058Z,81.90
2024-01-24T18:53:52.795Z,81.95
2024-01-24T18:56:16.345Z,81.79
2024-01-24T18:58:40.436Z,81.84
2024-01-24T19:01:05.393Z,82.22
2024-01-24T19:03:30.372Z,82.45
2024-01-24T19:05:54.636Z,82.47
2024-01-24T19:08:18.296Z,82.24
2024-01-24T19:10:41.831Z,82.59
2024-01-24T19:13:06.899Z,82.56
2024-01-24T19:15:30.573Z,82.61
2024-01-24T19:17:54.105Z,82.59
2024-01-24T19:20:19.418Z,82.88
2024-01-24T19:22:42.953Z,82.91
2024-01-24T19:25:09.122Z,82.70
2024-01-24T19:27:32.965Z,82.80
2024-01-24T19:29:56.770Z,83.63
2024-01-24T19:32:20.411Z,83.20
2024-01-24T19:34:52.516Z,83.50
2024-01-24T19:37:17.960Z,83.52
2024-01-24T19:39:41.769Z,83.89
2024-01-24T19:42:06.252Z,83.84
2024-01-24T19:44:29.996Z,83.89
2024-01-24T19:46:57.002Z,83.58
2024-01-24T19:49:21.120Z,83.69
2024-01-24T19:51:44.951Z,84.07
2024-01-24T19:54:11.704Z,84.87
2024-01-24T19:56:35.513Z,84.53
2024-01-24T19:59:00.408Z,84.61
2024-01-24T20:01:25.107Z,84.75
2024-01-24T20:03:49.129Z,84.51
2024-01-24T20:06:12.744Z,84.87
2024-01-24T20:08:36.499Z,84.95
2024-01-24T20:11:01.858Z,85.16
2024-01-24T20:13:25.462Z,85.67
2024-01-24T20:15:49.315Z,85.24
2024-01-24T20:18:12.861Z,85.18
2024-01-24T20:20:36.832Z,85.48
2024-01-24T20:23:01.760Z,85.46
2024-01-24T20:25:25.787Z,85.88
2024-01-24T20:27:51.068Z,85.41
2024-01-24T20:30:15.854Z,85.88
2024-01-24T20:32:45.442Z,85.87
2024-01-24T20:35:16.609Z,86.32
2024-01-24T20:37:40.266Z,86.29
2024-01-24T20:40:04.902Z,86.67
2024-01-24T20:42:29.955Z,87.36
2024-01-24T20:44:55.417Z,87.98
2024-01-24T20:47:19.010Z,87.87
2024-01-24T20:49:43.049Z,88.74
2024-01-24T20:52:07.767Z,88.98
2024-01-24T20:54:31.665Z,89.97
2024-01-24T20:56:55.303Z,90.99
2024-01-24T20:59:19.678Z,90.73
2024-01-24T21:01:45.498Z,90.89
2024-01-24T21:04:09.849Z,90.83
2024-01-24T21:06:33.863Z,90.99
2024-01-24T21:08:57.317Z,91.84
2024-01-24T21:11:20.874Z,92.10
2024-01-24T21:13:44.342Z,92.53
2024-01-24T21:16:07.820Z,92.54
2024-01-24T21:18:32.623Z,92.68
2024-01-24T21:20:56.210Z,92.86
2024-01-24T21:23:21.136Z,93.43
2024-01-24T21:25:45.929Z,93.75
2024-01-24T21:28:09.463Z,93.88
2024-01-24T21:30:32.893Z,94.28
2024-01-24T21:32:56.529Z,94.20
2024-01-24T21:35:21.438Z,94.43
2024-01-24T21:37:45.044Z,94.65
2024-01-24T21:40:09.957Z,95.12
2024-01-24T21:42:33.438Z,95.64
2024-01-24T21:44:57.096Z,96.02
2024-01-24T21:47:20.856Z,95.75
2024-01-24T21:49:44.392Z,96.34
2024-01-24T21:52:09.450Z,96.46
2024-01-24T21:54:32.962Z,96.61
2024-01-24T21:56:56.452Z,96.50
2024-01-24T21:59:19.948Z,97.04
2024-01-24T22:01:43.959Z,96.80
2024-01-24T22:04:07.952Z,97.18
2024-01-24T22:06:32.073Z,96.96
2024-01-24T22:08:58.570Z,96.95
2024-01-24T22:11:22.205Z,97.39
2024-01-24T22:13:46.291Z,97.40
2024-01-24T22:16:09.814Z,97.04
2024-01-24T22:18:40.648Z,97.55
2024-01-24T22:21:10.016Z,97.62
2024-01-24T22:23:33.654Z,97.78
2024-01-24T22:25:58.455Z,98.61
2024-01-24T22:28:21.991Z,98.95
2024-01-24T22:30:45.439Z,99.05
2024-01-24T22:33:09.011Z,98.95
2024-01-24T22:35:32.665Z,99.05
2024-01-24T22:37:58.223Z,99.32
2024-01-24T22:40:22.110Z,99.45
2024-01-24T22:42:47.278Z,99.86
2024-01-24T22:45:14.590Z,99.38
2024-01-24T22:47:38.497Z,99.00
2024-01-24T22:50:02.309Z,99.24
2024-01-24T22:52:26.220Z,99.16
2024-01-24T22:54:51.467Z,99.38
2024-01-24T22:57:15.832Z,98.89
2024-01-24T22:59:40.687Z,99.03
2024-01-24T23:02:04.405Z,99.26
2024-01-24T23:04:28.482Z,99.31
2024-01-24T23:06:51.997Z,99.73
2024-01-24T23:09:16.446Z,99.79
2024-01-24T23:11:40.025Z,99.50
2024-01-24T23:14:03.741Z,99.82
2024-01-24T23:16:28.766Z,100.00
2024-01-24T23:18:52.334Z,100.00
2024-01-24T23:21:15.902Z,100.00
2024-01-24T23:23:41.254Z,100.00
2024-01-24T23:26:04.951Z,100.00
2024-01-24T23:28:29.130Z,100.00
2024-01-24T23:30:53.278Z,100.00
2024-01-24T23:33:18.275Z,100.00
2024-01-24T23:35:41.820Z,100.00
2024-01-24T23:38:05.244Z,100.00
2024-01-24T23:40:28.798Z,100.00
2024-01-24T23:42:52.366Z,100.00
2024-01-24T23:45:15.900Z,100.00
2024-01-24T23:47:39.488Z,100.00
2024-01-24T23:50:05.192Z,100.00
2024-01-24T23:52:28.863Z,100.00
2024-01-24T23:54:52.365Z,100.00
2024-01-24T23:57:15.937Z,100.00
2024-01-24T23:59:39.381Z,100.00
